Time;durP1;ratioP1;P1;durP2;ratioP2;P2;SDS_P1;SDS_P2;PMS_P1;PMS_P2;Temp;Humidity;BMP_temperature;BMP_pressure;BME280_temperature;BME280_humidity;BME280_pressure;Samples;Min_cycle;Max_cycle;Signal;HPM_P1;HPM_P2
2021/03/07 00:01:57;;;;;;;21.05;8.98;;;;;;;;;;5068971;28;20124;-64
2021/03/07 00:04:23;;;;;;;26.45;9.00;;;;;;;;;;5072368;28;20034;-63
2021/03/07 00:06:52;;;;;;;14.38;7.82;;;;;;;;;;5070445;28;20116;-62
2021/03/07 00:09:20;;;;;;;17.90;7.80;;;;;;;;;;5072808;28;20032;-63
2021/03/07 00:11:46;;;;;;;18.63;7.90;;;;;;;;;;5073161;28;20113;-63
2021/03/07 00:14:12;;;;;;;20.33;8.18;;;;;;;;;;5075957;28;20067;-63
2021/03/07 00:16:38;;;;;;;16.02;7.38;;;;;;;;;;5083137;28;20032;-63
2021/03/07 00:19:04;;;;;;;16.60;8.13;;;;;;;;;;5056846;28;20059;-64
2021/03/07 00:21:30;;;;;;;17.70;7.95;;;;;;;;;;5070607;28;20134;-63
2021/03/07 00:23:56;;;;;;;20.15;8.52;;;;;;;;;;5069852;28;20115;-63
2021/03/07 00:26:24;;;;;;;21.70;8.07;;;;;;;;;;5069310;28;20134;-64
2021/03/07 00:28:50;;;;;;;24.23;8.48;;;;;;;;;;5069373;28;20033;-64
2021/03/07 00:31:16;;;;;;;25.63;8.02;;;;;;;;;;5067507;28;20538;-64
2021/03/07 00:33:42;;;;;;;26.55;8.63;;;;;;;;;;5066771;28;20657;-63
2021/03/07 00:36:08;;;;;;;23.48;8.38;;;;;;;;;;5070385;28;20534;-63
2021/03/07 00:38:34;;;;;;;20.83;8.27;;;;;;;;;;5077321;28;20155;-63
2021/03/07 00:41:00;;;;;;;16.80;7.45;;;;;;;;;;5074424;28;20391;-63
2021/03/07 00:43:26;;;;;;;24.23;8.07;;;;;;;;;;5078937;28;20044;-63
2021/03/07 00:45:52;;;;;;;23.33;7.97;;;;;;;;;;5075512;28;20380;-63
2021/03/07 00:48:18;;;;;;;19.30;6.60;;;;;;;;;;5068244;28;20036;-63
2021/03/07 00:50:44;;;;;;;18.70;6.50;;;;;;;;;;5043220;28;20044;-63
2021/03/07 00:53:10;;;;;;;14.43;5.57;;;;;;;;;;5042969;28;20511;-63
2021/03/07 00:55:36;;;;;;;16.38;5.93;;;;;;;;;;5067973;28;20039;-63
2021/03/07 00:58:02;;;;;;;14.77;5.95;;;;;;;;;;5071719;28;20079;-64
2021/03/07 01:00:29;;;;;;;10.45;5.68;;;;;;;;;;5068724;28;20036;-63
2021/03/07 01:02:58;;;;;;;11.10;5.13;;;;;;;;;;5058700;27;20569;-63
2021/03/07 01:05:26;;;;;;;10.48;4.97;;;;;;;;;;5052889;28;20098;-63
2021/03/07 01:07:55;;;;;;;14.63;5.18;;;;;;;;;;5059370;28;20082;-64
2021/03/07 01:10:27;;;;;;;16.08;4.88;;;;;;;;;;5066966;28;20043;-64
2021/03/07 01:12:53;;;;;;;14.63;4.70;;;;;;;;;;5061380;28;20072;-63
2021/03/07 01:15:23;;;;;;;12.00;4.50;;;;;;;;;;5062419;28;20248;-64
2021/03/07 01:17:52;;;;;;;14.57;4.22;;;;;;;;;;5064194;28;20123;-64
2021/03/07 01:20:18;;;;;;;12.88;4.00;;;;;;;;;;5049882;28;23780;-63
2021/03/07 01:22:44;;;;;;;6.05;3.78;;;;;;;;;;5049200;28;20660;-64
2021/03/07 01:25:10;;;;;;;7.10;3.38;;;;;;;;;;5069467;28;20044;-63
2021/03/07 01:27:36;;;;;;;11.68;3.55;;;;;;;;;;5065666;28;20105;-64
2021/03/07 01:30:07;;;;;;;8.32;3.85;;;;;;;;;;5067911;28;20036;-64
2021/03/07 01:32:33;;;;;;;6.20;3.25;;;;;;;;;;5063054;28;22848;-64
2021/03/07 01:34:59;;;;;;;8.43;3.78;;;;;;;;;;5063168;28;21006;-64
2021/03/07 01:37:24;;;;;;;7.72;2.88;;;;;;;;;;5055636;28;20066;-64
2021/03/07 01:39:51;;;;;;;5.10;3.20;;;;;;;;;;5067346;28;20035;-64
2021/03/07 01:42:17;;;;;;;7.50;3.03;;;;;;;;;;5067471;28;20074;-64
2021/03/07 01:44:45;;;;;;;8.35;3.72;;;;;;;;;;5059500;28;20044;-64
2021/03/07 01:47:12;;;;;;;4.57;3.28;;;;;;;;;;5060425;28;20135;-63
2021/03/07 01:49:38;;;;;;;7.57;3.47;;;;;;;;;;5048570;28;20062;-64
2021/03/07 01:52:04;;;;;;;6.60;3.40;;;;;;;;;;5061738;28;20035;-64
2021/03/07 01:54:30;;;;;;;7.65;3.65;;;;;;;;;;5072768;28;20055;-63
2021/03/07 01:56:56;;;;;;;4.75;3.22;;;;;;;;;;5060255;28;20036;-64
2021/03/07 01:59:23;;;;;;;6.30;3.00;;;;;;;;;;5045390;28;20641;-64
2021/03/07 02:01:50;;;;;;;6.88;3.28;;;;;;;;;;5043871;28;20064;-64
2021/03/07 02:04:16;;;;;;;6.40;2.95;;;;;;;;;;5040212;28;20123;-64
2021/03/07 02:06:42;;;;;;;10.57;3.20;;;;;;;;;;5044615;28;20045;-64
2021/03/07 02:09:08;;;;;;;7.15;3.55;;;;;;;;;;5050260;28;20115;-64
2021/03/07 02:11:34;;;;;;;10.20;3.70;;;;;;;;;;5045431;28;20049;-64
2021/03/07 02:14:01;;;;;;;7.15;3.95;;;;;;;;;;5050734;28;20033;-66
2021/03/07 02:16:28;;;;;;;5.65;3.72;;;;;;;;;;5051928;28;20044;-63
2021/03/07 02:18:55;;;;;;;7.13;3.17;;;;;;;;;;5055520;28;20052;-63
2021/03/07 02:21:44;;;;;;;6.85;3.72;;;;;;;;;;5060433;28;20028;-63
2021/03/07 02:24:14;;;;;;;8.25;3.80;;;;;;;;;;5048696;28;20028;-64
2021/03/07 02:26:41;;;;;;;10.63;4.60;;;;;;;;;;5048610;28;20120;-63
2021/03/07 02:29:10;;;;;;;8.93;3.90;;;;;;;;;;5049259;28;21549;-64
2021/03/07 02:31:38;;;;;;;10.50;4.32;;;;;;;;;;5043859;28;20127;-64
2021/03/07 02:34:17;;;;;;;8.00;4.18;;;;;;;;;;5051733;28;20548;-64
2021/03/07 02:36:44;;;;;;;11.40;4.30;;;;;;;;;;5047891;28;20071;-64
2021/03/07 02:39:13;;;;;;;9.15;3.85;;;;;;;;;;5063520;28;20579;-64
2021/03/07 02:41:39;;;;;;;12.07;4.00;;;;;;;;;;5068215;28;20054;-64
2021/03/07 02:44:08;;;;;;;7.25;4.40;;;;;;;;;;5071616;28;20036;-64
2021/03/07 02:46:35;;;;;;;8.30;4.30;;;;;;;;;;5068611;28;20608;-63
2021/03/07 02:49:02;;;;;;;9.02;4.63;;;;;;;;;;5068911;28;20043;-64
2021/03/07 02:51:30;;;;;;;7.45;4.00;;;;;;;;;;5069812;28;20039;-63
2021/03/07 02:53:57;;;;;;;8.80;4.78;;;;;;;;;;5064373;28;20100;-63
2021/03/07 02:56:24;;;;;;;8.93;4.80;;;;;;;;;;5074503;28;20043;-63
2021/03/07 02:58:56;;;;;;;9.63;4.97;;;;;;;;;;5068786;28;20039;-63
2021/03/07 03:01:25;;;;;;;7.00;4.43;;;;;;;;;;5068010;28;20036;-63
2021/03/07 03:03:51;;;;;;;11.75;5.07;;;;;;;;;;5067877;28;20032;-64
2021/03/07 03:06:17;;;;;;;8.25;4.65;;;;;;;;;;5063483;28;20048;-63
2021/03/07 03:08:49;;;;;;;8.82;4.05;;;;;;;;;;5071749;28;20411;-63
2021/03/07 03:11:18;;;;;;;9.05;4.15;;;;;;;;;;5078559;28;20109;-63
2021/03/07 03:13:49;;;;;;;15.23;5.15;;;;;;;;;;5072245;28;20127;-63
2021/03/07 03:16:15;;;;;;;7.80;4.38;;;;;;;;;;5075707;28;20059;-63
2021/03/07 03:18:42;;;;;;;15.73;5.15;;;;;;;;;;5067106;28;20038;-63
2021/03/07 03:21:12;;;;;;;15.95;5.72;;;;;;;;;;5064471;28;20059;-63
2021/03/07 03:23:39;;;;;;;10.82;5.30;;;;;;;;;;5065461;28;20048;-64
2021/03/07 03:26:05;;;;;;;11.23;5.05;;;;;;;;;;5067038;28;20045;-63
2021/03/07 03:28:33;;;;;;;10.45;5.30;;;;;;;;;;5064118;28;20044;-63
2021/03/07 03:30:59;;;;;;;11.27;5.10;;;;;;;;;;5067286;28;20036;-63
2021/03/07 03:33:25;;;;;;;11.68;4.32;;;;;;;;;;5066725;28;20025;-63
2021/03/07 03:35:52;;;;;;;10.57;4.50;;;;;;;;;;5075158;28;20032;-63
2021/03/07 03:38:18;;;;;;;11.20;4.80;;;;;;;;;;5066912;28;20036;-63
2021/03/07 03:40:46;;;;;;;7.15;4.30;;;;;;;;;;5064471;28;20037;-63
2021/03/07 03:43:13;;;;;;;8.05;4.40;;;;;;;;;;5070559;28;20051;-63
2021/03/07 03:45:40;;;;;;;9.55;4.75;;;;;;;;;;5067136;28;20114;-63
2021/03/07 03:48:08;;;;;;;12.07;4.63;;;;;;;;;;5064790;28;20427;-63
2021/03/07 03:50:36;;;;;;;7.88;4.78;;;;;;;;;;5068425;28;20040;-63
2021/03/07 03:53:03;;;;;;;10.10;4.60;;;;;;;;;;5066230;28;20036;-64
2021/03/07 03:55:33;;;;;;;6.93;4.60;;;;;;;;;;5072306;28;20712;-63
2021/03/07 03:58:03;;;;;;;10.82;4.32;;;;;;;;;;5064077;28;20028;-63
2021/03/07 04:00:32;;;;;;;10.77;4.88;;;;;;;;;;5075937;28;20044;-63
2021/03/07 04:03:01;;;;;;;11.90;4.80;;;;;;;;;;5059813;28;20044;-63
2021/03/07 04:05:30;;;;;;;9.13;4.63;;;;;;;;;;5060854;28;20403;-63
2021/03/07 04:08:00;;;;;;;8.73;3.63;;;;;;;;;;5069959;28;20039;-63
2021/03/07 04:10:29;;;;;;;14.55;5.20;;;;;;;;;;5064799;28;20048;-64
2021/03/07 04:12:58;;;;;;;9.38;4.82;;;;;;;;;;5060770;28;20039;-64
2021/03/07 04:15:24;;;;;;;15.05;5.20;;;;;;;;;;5060870;28;20028;-64
2021/03/07 04:17:51;;;;;;;8.70;4.70;;;;;;;;;;5073321;28;20109;-63
2021/03/07 04:20:19;;;;;;;13.18;5.38;;;;;;;;;;5072274;28;20044;-63
2021/03/07 04:22:48;;;;;;;8.55;4.70;;;;;;;;;;5083022;28;20067;-63
2021/03/07 04:25:16;;;;;;;9.43;4.90;;;;;;;;;;5066937;28;20042;-64
2021/03/07 04:27:43;;;;;;;7.70;4.70;;;;;;;;;;5070057;28;20128;-63
2021/03/07 04:30:10;;;;;;;7.93;4.38;;;;;;;;;;5065651;28;20040;-63
2021/03/07 04:32:38;;;;;;;11.07;4.93;;;;;;;;;;5067050;28;20078;-63
2021/03/07 04:35:04;;;;;;;10.38;4.55;;;;;;;;;;5076475;28;20036;-63
2021/03/07 04:37:30;;;;;;;11.55;5.05;;;;;;;;;;5077309;28;20066;-63
2021/03/07 04:39:56;;;;;;;11.52;4.72;;;;;;;;;;5066850;28;20578;-63
2021/03/07 04:42:26;;;;;;;9.30;4.90;;;;;;;;;;5067155;28;20046;-63
2021/03/07 04:44:52;;;;;;;9.02;4.85;;;;;;;;;;5069309;28;20032;-63
2021/03/07 04:47:18;;;;;;;9.40;4.13;;;;;;;;;;5076066;28;20032;-63
2021/03/07 04:49:44;;;;;;;10.18;5.03;;;;;;;;;;5075175;28;20050;-63
2021/03/07 04:52:12;;;;;;;7.05;4.68;;;;;;;;;;5066854;28;20032;-63
2021/03/07 04:54:38;;;;;;;11.48;4.38;;;;;;;;;;5073713;28;20463;-63
2021/03/07 04:57:05;;;;;;;10.00;4.03;;;;;;;;;;5079327;28;20035;-63
2021/03/07 04:59:31;;;;;;;12.75;4.72;;;;;;;;;;5075997;28;20049;-63
2021/03/07 05:01:57;;;;;;;9.48;4.65;;;;;;;;;;5066651;28;20404;-63
2021/03/07 05:04:23;;;;;;;10.52;4.00;;;;;;;;;;5073190;28;20035;-63
2021/03/07 05:06:50;;;;;;;9.52;4.07;;;;;;;;;;5067265;28;20032;-63
2021/03/07 05:09:16;;;;;;;6.88;4.47;;;;;;;;;;5074810;28;20565;-63
2021/03/07 05:11:42;;;;;;;6.07;4.03;;;;;;;;;;5068669;27;20123;-63
2021/03/07 05:14:08;;;;;;;12.82;4.60;;;;;;;;;;5076422;28;20092;-64
2021/03/07 05:16:34;;;;;;;12.77;5.03;;;;;;;;;;5073459;28;20509;-63
2021/03/07 05:19:03;;;;;;;10.48;4.35;;;;;;;;;;5068355;28;20040;-63
2021/03/07 05:21:29;;;;;;;7.32;4.47;;;;;;;;;;5071068;28;20028;-63
2021/03/07 05:23:56;;;;;;;10.95;4.70;;;;;;;;;;5070886;28;20555;-63
2021/03/07 05:26:22;;;;;;;9.88;4.43;;;;;;;;;;5071826;27;20026;-64
2021/03/07 05:28:48;;;;;;;8.90;4.72;;;;;;;;;;5072413;28;20040;-63
2021/03/07 05:31:17;;;;;;;10.38;3.88;;;;;;;;;;5067171;27;20081;-63
2021/03/07 05:33:43;;;;;;;10.75;4.28;;;;;;;;;;5068902;28;20127;-64
2021/03/07 05:36:09;;;;;;;11.57;4.65;;;;;;;;;;5066394;28;20525;-64
2021/03/07 05:38:35;;;;;;;4.85;3.50;;;;;;;;;;5066951;28;20036;-63
2021/03/07 05:41:01;;;;;;;4.32;3.67;;;;;;;;;;5064958;28;20032;-64
2021/03/07 05:43:27;;;;;;;7.93;4.22;;;;;;;;;;5073343;28;20254;-63
2021/03/07 05:45:53;;;;;;;8.35;4.50;;;;;;;;;;5074876;28;20117;-63
2021/03/07 05:48:19;;;;;;;8.63;4.38;;;;;;;;;;5068117;27;20044;-64
2021/03/07 05:50:45;;;;;;;9.43;3.83;;;;;;;;;;5075646;28;20040;-63
2021/03/07 05:53:12;;;;;;;8.73;4.32;;;;;;;;;;5070764;28;20667;-63
2021/03/07 05:55:38;;;;;;;10.20;4.25;;;;;;;;;;5067170;28;20088;-63
2021/03/07 05:58:05;;;;;;;10.38;4.93;;;;;;;;;;5065474;28;20028;-64
2021/03/07 06:00:34;;;;;;;8.60;4.10;;;;;;;;;;5071999;28;20040;-63
2021/03/07 06:03:02;;;;;;;6.35;3.90;;;;;;;;;;5070276;28;20105;-63
2021/03/07 06:05:28;;;;;;;10.15;4.25;;;;;;;;;;5069577;28;20583;-63
2021/03/07 06:07:54;;;;;;;8.75;4.00;;;;;;;;;;5069075;28;20044;-64
2021/03/07 06:10:22;;;;;;;6.38;3.88;;;;;;;;;;5071207;28;20050;-63
2021/03/07 06:12:57;;;;;;;7.10;4.57;;;;;;;;;;5078086;28;20441;-63
2021/03/07 06:15:23;;;;;;;4.97;3.50;;;;;;;;;;5069538;28;20047;-63
2021/03/07 06:17:49;;;;;;;9.30;4.47;;;;;;;;;;5070630;28;20036;-64
2021/03/07 06:20:16;;;;;;;8.20;4.28;;;;;;;;;;5067314;28;20045;-63
2021/03/07 06:23:04;;;;;;;8.77;4.53;;;;;;;;;;5067343;28;20037;-63
2021/03/07 06:25:30;;;;;;;8.15;4.40;;;;;;;;;;5074382;28;20088;-64
2021/03/07 06:27:57;;;;;;;8.25;3.53;;;;;;;;;;5076992;28;20051;-64
2021/03/07 06:30:29;;;;;;;8.55;3.83;;;;;;;;;;5080807;28;20032;-64
2021/03/07 06:32:56;;;;;;;8.13;3.72;;;;;;;;;;5072850;28;20032;-64
2021/03/07 06:35:29;;;;;;;7.28;4.15;;;;;;;;;;5078274;28;20044;-64
2021/03/07 06:38:05;;;;;;;9.85;4.00;;;;;;;;;;5077815;28;20094;-63
2021/03/07 06:40:34;;;;;;;7.78;4.20;;;;;;;;;;5071788;28;20072;-64
2021/03/07 06:43:03;;;;;;;7.22;3.40;;;;;;;;;;5074315;28;20036;-63
2021/03/07 06:45:36;;;;;;;11.20;3.90;;;;;;;;;;5073258;28;20555;-64
2021/03/07 06:48:02;;;;;;;7.25;4.50;;;;;;;;;;5077310;28;20406;-64
2021/03/07 06:50:28;;;;;;;4.78;3.17;;;;;;;;;;5073474;28;20491;-64
2021/03/07 06:52:55;;;;;;;12.57;4.03;;;;;;;;;;5076893;28;20121;-63
2021/03/07 06:55:28;;;;;;;7.15;3.88;;;;;;;;;;5073572;27;20058;-63
2021/03/07 06:57:54;;;;;;;7.20;3.88;;;;;;;;;;5080427;28;20036;-63
2021/03/07 07:00:37;;;;;;;7.63;3.92;;;;;;;;;;5073005;28;20051;-63
2021/03/07 07:03:13;;;;;;;8.32;3.78;;;;;;;;;;5076101;28;20447;-63
2021/03/07 07:05:44;;;;;;;7.13;3.90;;;;;;;;;;5069377;28;20147;-63
2021/03/07 07:08:12;;;;;;;9.30;4.07;;;;;;;;;;5067947;28;20551;-63
2021/03/07 07:10:53;;;;;;;7.50;4.07;;;;;;;;;;5069556;28;20495;-63
2021/03/07 07:13:20;;;;;;;5.25;3.58;;;;;;;;;;5074932;28;20036;-63
2021/03/07 07:16:05;;;;;;;7.82;4.28;;;;;;;;;;5053360;28;20037;-63
2021/03/07 07:18:38;;;;;;;12.00;4.43;;;;;;;;;;5073559;28;20040;-63
2021/03/07 07:21:07;;;;;;;6.88;4.15;;;;;;;;;;5072441;28;20121;-63
2021/03/07 07:23:33;;;;;;;9.50;4.18;;;;;;;;;;5066954;28;20119;-63
2021/03/07 07:25:59;;;;;;;8.48;4.03;;;;;;;;;;5073543;28;20033;-63
2021/03/07 07:28:25;;;;;;;8.35;3.90;;;;;;;;;;5068777;28;20052;-63
2021/03/07 07:31:01;;;;;;;7.00;4.30;;;;;;;;;;5051780;28;20040;-63
2021/03/07 07:33:46;;;;;;;7.35;3.97;;;;;;;;;;5064608;28;20127;-64
2021/03/07 07:36:33;;;;;;;7.55;4.55;;;;;;;;;;5050364;28;20613;-63
2021/03/07 07:38:59;;;;;;;8.60;4.68;;;;;;;;;;5028600;28;20044;-64
2021/03/07 07:41:30;;;;;;;6.95;4.20;;;;;;;;;;5067331;28;20044;-64
2021/03/07 07:43:56;;;;;;;9.48;4.22;;;;;;;;;;5070206;28;20032;-63
2021/03/07 07:46:24;;;;;;;7.82;4.18;;;;;;;;;;5068444;28;20079;-64
2021/03/07 07:48:50;;;;;;;9.68;4.15;;;;;;;;;;5072031;28;20079;-64
2021/03/07 07:51:29;;;;;;;6.95;4.13;;;;;;;;;;5077996;28;20120;-64
2021/03/07 07:53:55;;;;;;;8.55;4.10;;;;;;;;;;5071946;28;20047;-63
2021/03/07 07:56:41;;;;;;;9.57;4.85;;;;;;;;;;5069109;28;20127;-64
2021/03/07 07:59:08;;;;;;;9.77;4.35;;;;;;;;;;5077588;28;20040;-64
2021/03/07 08:01:49;;;;;;;12.23;4.72;;;;;;;;;;5073717;28;20121;-64
2021/03/07 08:04:27;;;;;;;11.68;4.22;;;;;;;;;;5071152;28;20584;-64
2021/03/07 08:06:53;;;;;;;7.60;4.47;;;;;;;;;;5073155;28;20044;-64
2021/03/07 08:09:35;;;;;;;8.25;4.32;;;;;;;;;;5068378;28;20376;-64
2021/03/07 08:12:21;;;;;;;10.80;4.93;;;;;;;;;;5047454;28;20047;-65
2021/03/07 08:14:47;;;;;;;10.05;5.25;;;;;;;;;;5061041;28;20071;-63
2021/03/07 08:17:48;;;;;;;7.25;5.10;;;;;;;;;;5055925;28;20032;-63
2021/03/07 08:20:34;;;;;;;7.65;4.65;;;;;;;;;;5052935;28;20037;-63
2021/03/07 08:23:02;;;;;;;6.82;4.47;;;;;;;;;;5052593;28;20119;-63
2021/03/07 08:25:48;;;;;;;6.60;4.50;;;;;;;;;;5050401;28;20041;-64
2021/03/07 08:28:26;;;;;;;8.40;4.63;;;;;;;;;;5050995;28;20058;-63
2021/03/07 08:30:54;;;;;;;6.78;4.28;;;;;;;;;;5068938;28;20427;-64
2021/03/07 08:33:24;;;;;;;7.03;4.80;;;;;;;;;;5064324;28;20040;-63
2021/03/07 08:36:09;;;;;;;9.82;4.57;;;;;;;;;;5055398;28;20492;-64
2021/03/07 08:38:35;;;;;;;7.40;4.45;;;;;;;;;;5068714;28;20047;-64
2021/03/07 08:41:01;;;;;;;7.65;4.72;;;;;;;;;;5079096;28;20036;-65
2021/03/07 08:43:29;;;;;;;7.70;4.70;;;;;;;;;;5072785;28;20089;-64
2021/03/07 08:46:07;;;;;;;5.90;4.20;;;;;;;;;;5080691;28;20122;-64
2021/03/07 08:48:33;;;;;;;8.70;5.18;;;;;;;;;;5057106;28;20045;-64
2021/03/07 08:51:00;;;;;;;7.53;4.25;;;;;;;;;;5049139;28;20400;-64
2021/03/07 08:53:27;;;;;;;8.60;5.07;;;;;;;;;;5054515;28;20099;-64
2021/03/07 08:55:56;;;;;;;8.43;4.60;;;;;;;;;;5053332;28;20037;-63
2021/03/07 08:58:22;;;;;;;9.20;5.05;;;;;;;;;;5045315;28;20045;-64
2021/03/07 09:00:50;;;;;;;8.25;4.57;;;;;;;;;;5057964;28;20085;-64
2021/03/07 09:03:19;;;;;;;6.32;5.05;;;;;;;;;;5068884;28;20036;-65
2021/03/07 09:05:45;;;;;;;11.02;5.22;;;;;;;;;;5070325;28;20466;-63
2021/03/07 09:08:11;;;;;;;8.00;5.38;;;;;;;;;;5067387;28;20127;-64
2021/03/07 09:10:40;;;;;;;11.88;5.00;;;;;;;;;;5067003;28;20062;-64
2021/03/07 09:13:13;;;;;;;11.65;5.07;;;;;;;;;;5050037;28;20394;-64
2021/03/07 09:15:42;;;;;;;13.48;5.07;;;;;;;;;;5052825;28;20400;-64
2021/03/07 09:18:08;;;;;;;8.18;5.25;;;;;;;;;;5060825;28;20033;-64
2021/03/07 09:20:43;;;;;;;8.23;5.20;;;;;;;;;;5066145;28;20044;-64
2021/03/07 09:23:45;;;;;;;11.43;5.80;;;;;;;;;;5063158;28;20083;-64
2021/03/07 09:26:20;;;;;;;8.98;5.70;;;;;;;;;;4984045;28;20046;-64
2021/03/07 09:28:56;;;;;;;8.50;5.15;;;;;;;;;;5050327;28;20037;-64
2021/03/07 09:31:31;;;;;;;9.80;6.00;;;;;;;;;;5070016;28;20075;-64
2021/03/07 09:33:57;;;;;;;10.43;6.75;;;;;;;;;;5075948;28;20036;-64
2021/03/07 09:36:24;;;;;;;13.95;6.88;;;;;;;;;;5077417;28;20048;-64
2021/03/07 09:38:52;;;;;;;11.15;6.07;;;;;;;;;;5073585;28;20036;-64
2021/03/07 09:41:27;;;;;;;13.45;6.43;;;;;;;;;;5071817;28;20064;-64
2021/03/07 09:43:53;;;;;;;13.23;7.13;;;;;;;;;;5062564;28;20290;-64
2021/03/07 09:46:19;;;;;;;12.65;7.57;;;;;;;;;;5062381;28;20051;-64
2021/03/07 09:48:46;;;;;;;15.60;7.80;;;;;;;;;;5047504;28;20048;-65
2021/03/07 09:51:17;;;;;;;11.80;7.07;;;;;;;;;;5044841;28;20048;-63
2021/03/07 09:53:45;;;;;;;12.35;7.20;;;;;;;;;;5036654;28;20962;-63
2021/03/07 09:56:25;;;;;;;11.43;6.82;;;14.10;49.60;;;;;;5052890;28;20503;-63
2021/03/07 09:58:51;;;;;;;12.55;6.85;;;;;;;;;;5044905;28;20052;-65
2021/03/07 10:01:16;;;;;;;9.40;6.70;;;12.20;51.50;;;;;;5061045;28;20033;-64
2021/03/07 10:03:47;;;;;;;13.15;7.63;;;12.60;49.80;;;;;;5055275;28;20059;-64
2021/03/07 10:06:18;;;;;;;11.18;7.00;;;12.70;48.80;;;;;;5056105;28;20171;-64
2021/03/07 10:09:02;;;;;;;12.68;7.45;;;12.60;48.80;;;;;;5034312;28;20066;-65
2021/03/07 10:11:28;;;;;;;18.35;7.40;;;12.70;48.70;;;;;;5056724;28;20498;-65
2021/03/07 10:14:02;;;;;;;13.18;7.25;;;12.70;48.40;;;;;;5064035;28;20102;-65
2021/03/07 10:16:33;;;;;;;15.65;7.68;;;12.70;48.20;;;;;;5068798;28;20388;-64
2021/03/07 10:19:07;;;;;;;14.82;7.78;;;12.70;48.00;;;;;;5059870;28;20040;-64
2021/03/07 10:21:36;;;;;;;14.13;8.20;;;12.70;47.90;;;;;;5064104;28;20043;-64
2021/03/07 10:24:12;;;;;;;10.05;6.88;;;12.70;47.90;;;;;;5062967;28;20091;-65
2021/03/07 10:26:40;;;;;;;12.48;7.47;;;12.70;47.50;;;;;;5062358;28;20037;-64
2021/03/07 10:29:39;;;;;;;13.00;7.93;;;12.70;47.50;;;;;;5059234;28;20036;-64
2021/03/07 10:32:09;;;;;;;14.23;7.32;;;12.70;47.50;;;;;;5052237;28;20115;-64
2021/03/07 10:34:54;;;;;;;14.30;7.30;;;12.70;47.50;;;;;;5064049;28;20047;-64
2021/03/07 10:37:43;;;;;;;13.82;7.72;;;12.80;47.00;;;;;;5053396;28;20661;-65
2021/03/07 10:40:11;;;;;;;11.88;7.25;;;12.90;46.60;;;;;;5055818;28;20135;-65
2021/03/07 10:42:38;;;;;;;17.67;7.93;;;13.00;46.40;;;;;;5066446;28;20047;-66
2021/03/07 10:45:21;;;;;;;14.77;7.45;;;13.10;46.10;;;;;;5065370;28;20040;-66
2021/03/07 10:48:06;;;;;;;10.48;7.25;;;13.20;45.80;;;;;;5057988;28;20041;-65
2021/03/07 10:50:34;;;;;;;13.77;8.02;;;13.40;45.60;;;;;;5061370;28;20043;-64
2021/03/07 10:53:00;;;;;;;13.10;7.97;;;13.60;45.80;;;;;;5066401;28;20035;-64
2021/03/07 10:55:28;;;;;;;14.68;8.65;;;13.80;45.50;;;;;;5056725;28;20438;-64
2021/03/07 10:57:54;;;;;;;11.80;7.85;;;14.00;44.80;;;;;;5060780;28;20088;-64
2021/03/07 11:00:23;;;;;;;16.77;8.13;;;14.10;44.30;;;;;;5054036;28;20052;-65
2021/03/07 11:02:49;;;;;;;15.68;7.88;;;14.10;43.70;;;;;;5054791;28;20039;-64
2021/03/07 11:05:18;;;;;;;15.10;8.00;;;14.10;43.70;;;;;;5054330;28;20043;-64
2021/03/07 11:07:49;;;;;;;15.13;8.05;;;14.00;43.50;;;;;;5053475;28;20118;-64
2021/03/07 11:10:17;;;;;;;15.48;8.70;;;13.90;43.60;;;;;;5048475;28;20041;-64
2021/03/07 11:12:43;;;;;;;13.98;8.25;;;13.70;43.30;;;;;;5063089;28;20040;-64
2021/03/07 11:15:14;;;;;;;18.10;8.65;;;13.40;43.30;;;;;;5056389;28;20071;-64
2021/03/07 11:17:42;;;;;;;19.13;9.07;;;13.20;43.40;;;;;;5062474;28;20032;-64
2021/03/07 11:20:10;;;;;;;16.27;9.10;;;12.90;43.70;;;;;;5067269;28;20100;-65
2021/03/07 11:22:41;;;;;;;18.33;9.30;;;12.70;43.80;;;;;;5065121;28;22474;-64
2021/03/07 11:25:07;;;;;;;14.77;9.00;;;12.50;43.90;;;;;;5062719;28;20067;-64
2021/03/07 11:27:34;;;;;;;14.20;9.48;;;12.30;44.10;;;;;;5063189;28;20086;-64
2021/03/07 11:30:05;;;;;;;16.20;9.55;;;12.20;44.60;;;;;;5063268;28;20377;-64
2021/03/07 11:32:31;;;;;;;15.75;9.07;;;12.10;44.80;;;;;;5065550;28;20040;-64
2021/03/07 11:34:58;;;;;;;18.20;9.80;;;12.00;45.00;;;;;;5065920;28;20028;-64
2021/03/07 11:37:24;;;;;;;16.27;9.63;;;11.90;45.20;;;;;;5063413;28;20119;-64
2021/03/07 11:39:52;;;;;;;17.63;10.45;;;11.80;45.30;;;;;;5063259;28;20040;-64
2021/03/07 11:42:18;;;;;;;20.42;10.15;;;11.80;45.50;;;;;;5057800;28;20110;-64
2021/03/07 11:44:43;;;;;;;19.85;10.23;;;11.70;45.70;;;;;;5055592;28;20032;-64
2021/03/07 11:47:09;;;;;;;18.65;10.23;;;11.70;45.80;;;;;;5058579;28;20043;-64
2021/03/07 11:49:34;;;;;;;17.23;9.65;;;11.60;45.80;;;;;;5067468;28;20032;-64
2021/03/07 11:52:02;;;;;;;18.52;11.20;;;11.50;45.70;;;;;;5061255;28;20437;-64
2021/03/07 11:54:28;;;;;;;19.73;10.07;;;11.40;45.80;;;;;;5045057;28;20064;-64
2021/03/07 11:56:54;;;;;;;18.08;10.90;;;;;;;;;;5045321;28;20139;-64
2021/03/07 11:59:20;;;;;;;16.88;10.55;;;;;;;;;;5049734;28;20051;-64
2021/03/07 12:01:45;;;;;;;18.55;11.10;;;;;;;;;;5059880;28;20040;-63
2021/03/07 12:04:11;;;;;;;18.52;10.68;;;;;;;;;;5058436;28;20036;-67
2021/03/07 12:06:37;;;;;;;26.02;11.63;;;;;;;;;;5057552;28;20047;-65
2021/03/07 12:09:04;;;;;;;22.30;11.57;;;;;;;;;;5054183;28;20159;-64
2021/03/07 12:11:29;;;;;;;23.00;11.98;;;;;;;;;;5058890;28;20064;-64
2021/03/07 12:13:55;;;;;;;20.60;11.20;;;;;;;;;;5050468;28;20071;-64
2021/03/07 12:16:21;;;;;;;23.45;11.20;;;;;;;;;;5049912;28;20120;-62
2021/03/07 12:18:47;;;;;;;18.10;11.18;;;;;;;;;;5040893;28;20652;-63
2021/03/07 12:21:13;;;;;;;22.73;11.30;;;;;;;;;;5063790;28;20082;-63
2021/03/07 12:23:39;;;;;;;22.77;12.07;;;;;;;;;;5060666;28;20042;-63
2021/03/07 12:26:05;;;;;;;21.35;11.95;;;;;;;;;;5063652;28;20434;-63
2021/03/07 12:28:32;;;;;;;23.70;12.23;;;;;;;;;;5048311;28;20044;-63
2021/03/07 12:30:58;;;;;;;28.73;12.90;;;;;;;;;;5046717;28;20041;-63
2021/03/07 12:33:24;;;;;;;25.83;12.32;;;;;;;;;;5068424;28;20048;-63
2021/03/07 12:35:50;;;;;;;24.35;12.52;;;;;;;;;;5062006;28;20055;-63
2021/03/07 12:38:16;;;;;;;24.73;12.65;;;;;;;;;;5064659;28;20991;-63
2021/03/07 12:40:42;;;;;;;23.95;12.88;;;;;;;;;;5069181;28;20048;-63
2021/03/07 12:43:08;;;;;;;25.20;13.85;;;;;;;;;;5060663;28;20036;-63
2021/03/07 12:45:34;;;;;;;24.77;12.73;;;;;;;;;;5060976;28;20963;-63
2021/03/07 12:48:00;;;;;;;26.45;13.48;;;;;;;;;;5064237;28;20075;-63
2021/03/07 12:50:26;;;;;;;21.23;12.70;;;;;;;;;;5059776;28;20052;-63
2021/03/07 12:52:52;;;;;;;27.80;13.35;;;;;;;;;;5061227;28;21793;-63
2021/03/07 12:55:18;;;;;;;27.65;13.20;;;;;;;;;;5063613;28;20040;-63
2021/03/07 12:57:47;;;;;;;22.25;13.23;;;;;;;;;;5066906;28;20040;-63
2021/03/07 13:00:13;;;;;;;29.10;14.27;;;;;;;;;;5054946;28;20533;-63
2021/03/07 13:02:39;;;;;;;26.67;12.98;;;;;;;;;;5060295;28;20044;-63
2021/03/07 13:05:08;;;;;;;28.33;15.38;;;;;;;;;;5065789;28;20087;-63
2021/03/07 13:07:37;;;;;;;27.45;14.52;;;;;;;;;;5063772;28;20412;-63
2021/03/07 13:10:03;;;;;;;31.48;14.40;;;;;;;;;;5047019;28;20044;-63
2021/03/07 13:12:29;;;;;;;23.98;14.18;;;;;;;;;;5062603;28;20519;-63
2021/03/07 13:14:58;;;;;;;31.23;14.10;;;;;;;;;;5069145;28;20031;-63
2021/03/07 13:17:23;;;;;;;26.40;14.68;;;;;;;;;;5073024;27;20062;-63
2021/03/07 13:19:49;;;;;;;29.10;15.07;;;;;;;;;;5056955;28;20056;-64
2021/03/07 13:22:15;;;;;;;29.30;14.85;;;;;;;;;;5068773;28;20051;-63
2021/03/07 13:24:41;;;;;;;31.33;15.60;;;;;;;;;;5069086;28;20086;-63
2021/03/07 13:27:07;;;;;;;34.17;15.48;;;;;;;;;;5067267;28;20043;-63
2021/03/07 13:29:33;;;;;;;32.38;14.90;;;;;;;;;;5071393;28;20048;-64
2021/03/07 13:32:00;;;;;;;30.27;16.25;;;;;;;;;;5070929;28;20175;-63
2021/03/07 13:34:26;;;;;;;30.10;16.25;;;;;;;;;;5070524;28;20086;-63
2021/03/07 13:36:52;;;;;;;35.35;17.02;;;;;;;;;;5064392;28;20123;-64
2021/03/07 13:39:18;;;;;;;31.15;16.67;;;;;;;;;;5072236;28;20050;-63
2021/03/07 13:41:44;;;;;;;30.52;16.05;;;;;;;;;;5073476;28;20183;-63
2021/03/07 13:44:10;;;;;;;31.13;16.23;;;;;;;;;;5039670;28;20041;-64
2021/03/07 13:46:35;;;;;;;28.45;15.57;;;;;;;;;;5042936;28;20040;-63
2021/03/07 13:49:01;;;;;;;27.70;15.60;;;;;;;;;;5034966;28;20040;-63
2021/03/07 13:51:30;;;;;;;27.83;15.70;;;;;;;;;;5012319;28;20055;-64
2021/03/07 13:53:58;;;;;;;30.42;15.52;;;;;;;;;;5038971;28;20136;-64
2021/03/07 13:56:24;;;;;;;31.70;15.55;;;;;;;;;;5058572;28;20287;-63
2021/03/07 13:58:50;;;;;;;30.33;16.00;;;;;;;;;;5058258;28;20040;-63
2021/03/07 14:01:16;;;;;;;25.98;14.98;;;;;;;;;;5046626;28;20127;-63
2021/03/07 14:03:42;;;;;;;36.72;16.88;;;;;;;;;;5054490;28;20048;-64
2021/03/07 14:06:08;;;;;;;37.83;17.17;;;;;;;;;;5057102;28;20563;-64
2021/03/07 14:08:36;;;;;;;30.75;16.27;;;;;;;;;;5053738;28;20487;-64
2021/03/07 14:11:05;;;;;;;33.70;17.85;;;;;;;;;;5055769;28;20131;-62
2021/03/07 14:13:31;;;;;;;32.17;17.10;;;;;;;;;;5051825;28;20051;-61
2021/03/07 14:15:57;;;;;;;27.63;16.42;;;;;;;;;;5046962;28;20627;-61
2021/03/07 14:18:23;;;;;;;32.15;15.85;;;;;;;;;;5046093;28;20048;-62
2021/03/07 14:20:49;;;;;;;30.92;16.13;;;;;;;;;;5060275;28;20044;-63
2021/03/07 14:23:15;;;;;;;31.58;16.55;;;;;;;;;;5056779;28;20448;-62
2021/03/07 14:25:41;;;;;;;32.53;17.77;;;;;;;;;;5054400;28;20043;-62